UPSVAC Airport Information Service

Birmingham Shuttlesworth International Airport

ICAO: KBHM Country: United States
Latitude: 33.5639 Longitude: -86.7523
Latest Arrival : UPS1826 (KSDF-KBHM) Latest Departure : UPS1932 (KBHM-KSDF)


WX CaptureLIVE
Data provided by noaa.gov | Fetched at 01:19:46

METAR : KBHM 150053Z 30005KT 9SM FEW045 BKN055 BKN250 31/23 A2993 RMK AO2 SLP125 T03060233

TAF : KBHM 142340Z 1500/1524 33008KT P6SM SCT050 SCT200 FM150100 VRB02KT P6SM SKC FM151900 34011KT P6SM SKC


Runway Data for KBHM
Data provided by openaviationdata.com

Runway ID Mag Var Hdg Length Elevation Surface ILS Freq ILS Id ILS Slope
6 -1 56° 9999 ft 644 ft Asphalt 110.3 IBHM 3
18 -1 181° 7112 ft 644 ft Asphalt 111.3 IBXO 0
24 -1 236° 9999 ft 644 ft Asphalt 109.5 IROE 3
36 -1 7112 ft 644 ft Asphalt -- -- --

Birmingham Shuttlesworth International Airport, United States
Use only for reference purposes



Not for navigational purposes.